sensor_id;sensor_type;location;lat;lon;timestamp;pressure;altitude;pressure_sealevel;temperature
71807;BMP280;59655;42.590;23.364;2023-05-10T00:01:23;91712.19;;;9.88
71807;BMP280;59655;42.590;23.364;2023-05-10T00:03:48;91714.66;;;9.86
71807;BMP280;59655;42.590;23.364;2023-05-10T00:06:14;91707.00;;;9.75
71807;BMP280;59655;42.590;23.364;2023-05-10T00:08:39;91711.25;;;9.78
71807;BMP280;59655;42.590;23.364;2023-05-10T00:11:05;91716.03;;;9.80
71807;BMP280;59655;42.590;23.364;2023-05-10T00:13:31;91708.06;;;9.80
71807;BMP280;59655;42.590;23.364;2023-05-10T00:15:56;91706.34;;;9.82
71807;BMP280;59655;42.590;23.364;2023-05-10T00:18:22;91706.81;;;9.73
71807;BMP280;59655;42.590;23.364;2023-05-10T00:20:47;91700.94;;;9.67
71807;BMP280;59655;42.590;23.364;2023-05-10T00:23:14;91697.97;;;9.71
71807;BMP280;59655;42.590;23.364;2023-05-10T00:25:39;91701.34;;;9.71
71807;BMP280;59655;42.590;23.364;2023-05-10T00:28:05;91700.06;;;9.64
71807;BMP280;59655;42.590;23.364;2023-05-10T00:30:30;91706.72;;;9.58
71807;BMP280;59655;42.590;23.364;2023-05-10T00:32:56;91699.16;;;9.62
71807;BMP280;59655;42.590;23.364;2023-05-10T00:35:21;91695.59;;;9.59
71807;BMP280;59655;42.590;23.364;2023-05-10T00:37:47;91698.91;;;9.52
71807;BMP280;59655;42.590;23.364;2023-05-10T00:40:12;91700.66;;;9.50
71807;BMP280;59655;42.590;23.364;2023-05-10T00:42:38;91685.00;;;9.59
71807;BMP280;59655;42.590;23.364;2023-05-10T00:45:04;91691.16;;;9.54
71807;BMP280;59655;42.590;23.364;2023-05-10T00:47:29;91695.25;;;9.55
71807;BMP280;59655;42.590;23.364;2023-05-10T00:49:55;91694.38;;;9.60
71807;BMP280;59655;42.590;23.364;2023-05-10T00:52:21;91685.66;;;9.52
71807;BMP280;59655;42.590;23.364;2023-05-10T00:54:50;91691.25;;;9.41
71807;BMP280;59655;42.590;23.364;2023-05-10T00:57:16;91689.53;;;9.43
71807;BMP280;59655;42.590;23.364;2023-05-10T00:59:41;91690.72;;;9.42
71807;BMP280;59655;42.590;23.364;2023-05-10T01:02:07;91691.44;;;9.43
71807;BMP280;59655;42.590;23.364;2023-05-10T01:04:32;91695.78;;;9.33
71807;BMP280;59655;42.590;23.364;2023-05-10T01:06:58;91688.53;;;9.33
71807;BMP280;59655;42.590;23.364;2023-05-10T01:09:23;91692.25;;;9.30
71807;BMP280;59655;42.590;23.364;2023-05-10T01:11:51;91690.28;;;9.31
71807;BMP280;59655;42.590;23.364;2023-05-10T01:14:18;91689.88;;;9.19
71807;BMP280;59655;42.590;23.364;2023-05-10T01:16:45;91692.38;;;9.24
71807;BMP280;59655;42.590;23.364;2023-05-10T01:21:49;91684.94;;;9.23
71807;BMP280;59655;42.590;23.364;2023-05-10T01:24:36;91688.00;;;9.27
71807;BMP280;59655;42.590;23.364;2023-05-10T01:37:21;91673.13;;;9.24
71807;BMP280;59655;42.590;23.364;2023-05-10T01:39:51;91674.38;;;9.23
71807;BMP280;59655;42.590;23.364;2023-05-10T01:42:23;91671.34;;;9.19
71807;BMP280;59655;42.590;23.364;2023-05-10T01:45:07;91665.66;;;9.15
71807;BMP280;59655;42.590;23.364;2023-05-10T01:47:43;91662.34;;;9.22
71807;BMP280;59655;42.590;23.364;2023-05-10T01:50:22;91659.53;;;9.20
71807;BMP280;59655;42.590;23.364;2023-05-10T01:52:58;91661.94;;;9.10
71807;BMP280;59655;42.590;23.364;2023-05-10T01:55:27;91663.72;;;9.15
71807;BMP280;59655;42.590;23.364;2023-05-10T01:58:02;91658.69;;;9.04
71807;BMP280;59655;42.590;23.364;2023-05-10T02:00:28;91659.19;;;9.02
71807;BMP280;59655;42.590;23.364;2023-05-10T02:02:55;91661.28;;;8.96
71807;BMP280;59655;42.590;23.364;2023-05-10T02:05:21;91663.78;;;9.02
71807;BMP280;59655;42.590;23.364;2023-05-10T02:07:47;91660.31;;;9.07
71807;BMP280;59655;42.590;23.364;2023-05-10T02:10:14;91660.63;;;9.03
71807;BMP280;59655;42.590;23.364;2023-05-10T02:12:45;91661.34;;;9.04
71807;BMP280;59655;42.590;23.364;2023-05-10T02:15:17;91660.28;;;8.99
71807;BMP280;59655;42.590;23.364;2023-05-10T02:17:45;91662.09;;;8.91
71807;BMP280;59655;42.590;23.364;2023-05-10T02:20:12;91658.78;;;8.91
71807;BMP280;59655;42.590;23.364;2023-05-10T02:22:39;91658.06;;;8.90
71807;BMP280;59655;42.590;23.364;2023-05-10T02:25:06;91662.31;;;8.93
71807;BMP280;59655;42.590;23.364;2023-05-10T02:27:34;91657.44;;;8.97
71807;BMP280;59655;42.590;23.364;2023-05-10T02:30:00;91657.75;;;8.94
71807;BMP280;59655;42.590;23.364;2023-05-10T02:32:27;91654.06;;;8.97
71807;BMP280;59655;42.590;23.364;2023-05-10T02:34:53;91654.66;;;8.82
71807;BMP280;59655;42.590;23.364;2023-05-10T02:37:20;91652.34;;;8.78
71807;BMP280;59655;42.590;23.364;2023-05-10T02:39:50;91654.97;;;8.78
71807;BMP280;59655;42.590;23.364;2023-05-10T02:42:18;91651.81;;;8.80
71807;BMP280;59655;42.590;23.364;2023-05-10T02:44:49;91654.78;;;8.76
71807;BMP280;59655;42.590;23.364;2023-05-10T02:47:16;91650.31;;;8.71
71807;BMP280;59655;42.590;23.364;2023-05-10T02:49:42;91650.63;;;8.68
71807;BMP280;59655;42.590;23.364;2023-05-10T02:52:08;91651.81;;;8.59
71807;BMP280;59655;42.590;23.364;2023-05-10T02:54:39;91649.34;;;8.61
71807;BMP280;59655;42.590;23.364;2023-05-10T02:57:06;91649.16;;;8.59
71807;BMP280;59655;42.590;23.364;2023-05-10T02:59:32;91647.97;;;8.47
71807;BMP280;59655;42.590;23.364;2023-05-10T03:01:59;91640.63;;;8.53
71807;BMP280;59655;42.590;23.364;2023-05-10T03:04:25;91647.91;;;8.39
71807;BMP280;59655;42.590;23.364;2023-05-10T03:06:51;91645.78;;;8.37
71807;BMP280;59655;42.590;23.364;2023-05-10T03:09:17;91642.94;;;8.35
71807;BMP280;59655;42.590;23.364;2023-05-10T03:20:36;91647.91;;;8.39
71807;BMP280;59655;42.590;23.364;2023-05-10T03:23:12;91643.97;;;8.32
71807;BMP280;59655;42.590;23.364;2023-05-10T03:25:39;91634.72;;;8.26
71807;BMP280;59655;42.590;23.364;2023-05-10T03:28:05;91637.97;;;8.32
71807;BMP280;59655;42.590;23.364;2023-05-10T03:30:31;91635.72;;;8.36
71807;BMP280;59655;42.590;23.364;2023-05-10T03:32:57;91646.81;;;8.34
71807;BMP280;59655;42.590;23.364;2023-05-10T03:35:23;91637.63;;;8.35
71807;BMP280;59655;42.590;23.364;2023-05-10T03:37:48;91637.38;;;8.26
71807;BMP280;59655;42.590;23.364;2023-05-10T03:40:14;91644.97;;;8.29
71807;BMP280;59655;42.590;23.364;2023-05-10T03:42:39;91646.72;;;8.27
71807;BMP280;59655;42.590;23.364;2023-05-10T03:45:05;91646.41;;;8.30
71807;BMP280;59655;42.590;23.364;2023-05-10T03:47:31;91647.44;;;8.27
71807;BMP280;59655;42.590;23.364;2023-05-10T03:49:57;91649.81;;;8.17
71807;BMP280;59655;42.590;23.364;2023-05-10T03:52:22;91650.91;;;8.22
71807;BMP280;59655;42.590;23.364;2023-05-10T03:54:48;91657.19;;;8.19
71807;BMP280;59655;42.590;23.364;2023-05-10T03:57:13;91663.72;;;8.18
71807;BMP280;59655;42.590;23.364;2023-05-10T03:59:39;91657.53;;;8.15
71807;BMP280;59655;42.590;23.364;2023-05-10T04:02:04;91660.16;;;8.15
71807;BMP280;59655;42.590;23.364;2023-05-10T04:04:30;91669.72;;;8.19
71807;BMP280;59655;42.590;23.364;2023-05-10T04:06:55;91676.53;;;8.14
71807;BMP280;59655;42.590;23.364;2023-05-10T04:09:20;91668.91;;;8.10
71807;BMP280;59655;42.590;23.364;2023-05-10T04:11:46;91672.28;;;8.11
71807;BMP280;59655;42.590;23.364;2023-05-10T04:14:11;91673.47;;;8.10
71807;BMP280;59655;42.590;23.364;2023-05-10T04:16:37;91668.91;;;8.10
71807;BMP280;59655;42.590;23.364;2023-05-10T04:19:02;91676.22;;;8.17
71807;BMP280;59655;42.590;23.364;2023-05-10T04:21:28;91675.31;;;8.15
71807;BMP280;59655;42.590;23.364;2023-05-10T04:23:53;91674.41;;;8.12
71807;BMP280;59655;42.590;23.364;2023-05-10T04:26:18;91675.41;;;8.23
71807;BMP280;59655;42.590;23.364;2023-05-10T04:28:44;91674.56;;;8.28
71807;BMP280;59655;42.590;23.364;2023-05-10T04:31:11;91673.53;;;8.31
71807;BMP280;59655;42.590;23.364;2023-05-10T04:33:37;91673.47;;;8.23
71807;BMP280;59655;42.590;23.364;2023-05-10T04:36:03;91675.31;;;8.15
71807;BMP280;59655;42.590;23.364;2023-05-10T04:38:29;91676.13;;;8.10
71807;BMP280;59655;42.590;23.364;2023-05-10T04:40:55;91679.56;;;8.18
71807;BMP280;59655;42.590;23.364;2023-05-10T04:43:28;91681.81;;;8.14
71807;BMP280;59655;42.590;23.364;2023-05-10T04:45:56;91677.56;;;8.11
71807;BMP280;59655;42.590;23.364;2023-05-10T04:48:21;91687.50;;;8.18
71807;BMP280;59655;42.590;23.364;2023-05-10T04:50:47;91681.69;;;8.20
71807;BMP280;59655;42.590;23.364;2023-05-10T04:53:12;91679.06;;;8.20
71807;BMP280;59655;42.590;23.364;2023-05-10T04:55:38;91675.81;;;8.13
71807;BMP280;59655;42.590;23.364;2023-05-10T04:58:03;91673.81;;;8.06
71807;BMP280;59655;42.590;23.364;2023-05-10T05:00:30;91687.53;;;8.05
71807;BMP280;59655;42.590;23.364;2023-05-10T05:02:55;91677.75;;;8.13
71807;BMP280;59655;42.590;23.364;2023-05-10T05:05:21;91673.38;;;8.15
71807;BMP280;59655;42.590;23.364;2023-05-10T05:07:46;91673.97;;;8.22
71807;BMP280;59655;42.590;23.364;2023-05-10T05:10:11;91677.75;;;8.26
71807;BMP280;59655;42.590;23.364;2023-05-10T05:12:37;91682.94;;;8.19
71807;BMP280;59655;42.590;23.364;2023-05-10T05:15:02;91679.25;;;8.08
71807;BMP280;59655;42.590;23.364;2023-05-10T05:17:30;91677.97;;;8.15
71807;BMP280;59655;42.590;23.364;2023-05-10T05:19:55;91690.03;;;8.24
71807;BMP280;59655;42.590;23.364;2023-05-10T05:22:21;91682.09;;;8.24
71807;BMP280;59655;42.590;23.364;2023-05-10T05:24:53;91687.19;;;8.22
71807;BMP280;59655;42.590;23.364;2023-05-10T05:27:18;91686.09;;;8.17
71807;BMP280;59655;42.590;23.364;2023-05-10T05:29:46;91690.22;;;8.26
71807;BMP280;59655;42.590;23.364;2023-05-10T05:32:11;91696.34;;;8.21
71807;BMP280;59655;42.590;23.364;2023-05-10T05:34:36;91688.41;;;8.21
71807;BMP280;59655;42.590;23.364;2023-05-10T05:37:02;91696.25;;;8.26
71807;BMP280;59655;42.590;23.364;2023-05-10T05:39:27;91694.81;;;8.25
71807;BMP280;59655;42.590;23.364;2023-05-10T05:41:53;91691.53;;;8.32
71807;BMP280;59655;42.590;23.364;2023-05-10T05:44:18;91694.81;;;8.25
71807;BMP280;59655;42.590;23.364;2023-05-10T05:46:43;91700.41;;;8.22
71807;BMP280;59655;42.590;23.364;2023-05-10T05:49:09;91698.47;;;8.22
71807;BMP280;59655;42.590;23.364;2023-05-10T05:51:35;91701.00;;;8.28
71807;BMP280;59655;42.590;23.364;2023-05-10T05:54:00;91704.88;;;8.27
71807;BMP280;59655;42.590;23.364;2023-05-10T05:56:26;91702.13;;;8.32
71807;BMP280;59655;42.590;23.364;2023-05-10T05:58:51;91707.72;;;8.29
71807;BMP280;59655;42.590;23.364;2023-05-10T06:01:17;91710.16;;;8.27
71807;BMP280;59655;42.590;23.364;2023-05-10T06:03:42;91715.25;;;8.25
71807;BMP280;59655;42.590;23.364;2023-05-10T06:06:08;91711.38;;;8.26
71807;BMP280;59655;42.590;23.364;2023-05-10T06:08:35;91715.13;;;8.30
71807;BMP280;59655;42.590;23.364;2023-05-10T06:11:22;91720.44;;;8.17
71807;BMP280;59655;42.590;23.364;2023-05-10T06:13:50;91719.31;;;8.26
71807;BMP280;59655;42.590;23.364;2023-05-10T06:16:16;91714.34;;;8.22
71807;BMP280;59655;42.590;23.364;2023-05-10T06:18:44;91705.59;;;8.27
71807;BMP280;59655;42.590;23.364;2023-05-10T06:21:13;91704.75;;;8.32
71807;BMP280;59655;42.590;23.364;2023-05-10T06:23:40;91710.75;;;8.33
71807;BMP280;59655;42.590;23.364;2023-05-10T06:26:12;91708.09;;;8.33
71807;BMP280;59655;42.590;23.364;2023-05-10T06:28:44;91709.34;;;8.32
71807;BMP280;59655;42.590;23.364;2023-05-10T06:31:13;91715.84;;;8.31
71807;BMP280;59655;42.590;23.364;2023-05-10T06:33:43;91721.81;;;8.31
71807;BMP280;59655;42.590;23.364;2023-05-10T06:36:11;91729.25;;;8.33
71807;BMP280;59655;42.590;23.364;2023-05-10T06:38:37;91731.19;;;8.32
71807;BMP280;59655;42.590;23.364;2023-05-10T06:41:05;91728.66;;;8.40
71807;BMP280;59655;42.590;23.364;2023-05-10T06:43:34;91730.97;;;8.30
71807;BMP280;59655;42.590;23.364;2023-05-10T06:46:00;91720.53;;;8.38
71807;BMP280;59655;42.590;23.364;2023-05-10T06:48:28;91720.13;;;8.34
71807;BMP280;59655;42.590;23.364;2023-05-10T06:50:54;91724.03;;;8.41
71807;BMP280;59655;42.590;23.364;2023-05-10T06:53:19;91719.56;;;8.49
71807;BMP280;59655;42.590;23.364;2023-05-10T06:55:44;91727.91;;;8.53
71807;BMP280;59655;42.590;23.364;2023-05-10T06:58:10;91718.88;;;8.48
71807;BMP280;59655;42.590;23.364;2023-05-10T07:00:36;91721.09;;;8.44
71807;BMP280;59655;42.590;23.364;2023-05-10T07:03:05;91723.94;;;8.46
71807;BMP280;59655;42.590;23.364;2023-05-10T07:05:31;91728.31;;;8.44
71807;BMP280;59655;42.590;23.364;2023-05-10T07:07:56;91736.97;;;8.31
71807;BMP280;59655;42.590;23.364;2023-05-10T07:10:22;91732.09;;;8.35
71807;BMP280;59655;42.590;23.364;2023-05-10T07:12:47;91734.84;;;8.29
71807;BMP280;59655;42.590;23.364;2023-05-10T07:15:13;91733.13;;;8.32
71807;BMP280;59655;42.590;23.364;2023-05-10T07:17:38;91725.09;;;8.37
71807;BMP280;59655;42.590;23.364;2023-05-10T07:20:04;91733.53;;;8.36
71807;BMP280;59655;42.590;23.364;2023-05-10T07:22:30;91730.47;;;8.45
71807;BMP280;59655;42.590;23.364;2023-05-10T07:24:56;91733.41;;;8.42
71807;BMP280;59655;42.590;23.364;2023-05-10T07:27:22;91734.25;;;8.36
71807;BMP280;59655;42.590;23.364;2023-05-10T07:29:47;91736.75;;;8.42
71807;BMP280;59655;42.590;23.364;2023-05-10T07:32:13;91737.88;;;8.47
71807;BMP280;59655;42.590;23.364;2023-05-10T07:34:39;91742.03;;;8.42
71807;BMP280;59655;42.590;23.364;2023-05-10T07:37:04;91739.91;;;8.41
71807;BMP280;59655;42.590;23.364;2023-05-10T07:39:31;91743.25;;;8.41
71807;BMP280;59655;42.590;23.364;2023-05-10T07:41:56;91735.97;;;8.47
71807;BMP280;59655;42.590;23.364;2023-05-10T07:44:22;91752.63;;;8.42
71807;BMP280;59655;42.590;23.364;2023-05-10T07:46:48;91745.09;;;8.46
71807;BMP280;59655;42.590;23.364;2023-05-10T07:49:13;91747.94;;;8.48
71807;BMP280;59655;42.590;23.364;2023-05-10T07:51:39;91745.09;;;8.46
71807;BMP280;59655;42.590;23.364;2023-05-10T07:54:04;91747.75;;;8.46
71807;BMP280;59655;42.590;23.364;2023-05-10T07:56:31;91752.72;;;8.50
71807;BMP280;59655;42.590;23.364;2023-05-10T07:58:58;91760.47;;;8.48
71807;BMP280;59655;42.590;23.364;2023-05-10T08:01:30;91750.09;;;8.50
71807;BMP280;59655;42.590;23.364;2023-05-10T08:04:04;91759.41;;;8.51
71807;BMP280;59655;42.590;23.364;2023-05-10T08:06:30;91757.19;;;8.55
71807;BMP280;59655;42.590;23.364;2023-05-10T08:08:56;91756.75;;;8.51
71807;BMP280;59655;42.590;23.364;2023-05-10T08:11:21;91748.22;;;8.58
71807;BMP280;59655;42.590;23.364;2023-05-10T08:13:50;91754.22;;;8.58
71807;BMP280;59655;42.590;23.364;2023-05-10T08:16:16;91754.13;;;8.51
71807;BMP280;59655;42.590;23.364;2023-05-10T08:18:43;91756.16;;;8.58
71807;BMP280;59655;42.590;23.364;2023-05-10T08:21:09;91749.25;;;8.55
71807;BMP280;59655;42.590;23.364;2023-05-10T08:23:37;91756.34;;;8.60
71807;BMP280;59655;42.590;23.364;2023-05-10T08:26:03;91756.34;;;8.60
71807;BMP280;59655;42.590;23.364;2023-05-10T08:28:28;91753.31;;;8.56
71807;BMP280;59655;42.590;23.364;2023-05-10T08:30:54;91757.41;;;8.57
71807;BMP280;59655;42.590;23.364;2023-05-10T08:33:24;91762.88;;;8.59
71807;BMP280;59655;42.590;23.364;2023-05-10T08:35:50;91758.69;;;8.64
71807;BMP280;59655;42.590;23.364;2023-05-10T08:38:19;91760.41;;;8.61
71807;BMP280;59655;42.590;23.364;2023-05-10T08:40:46;91749.97;;;8.55
71807;BMP280;59655;42.590;23.364;2023-05-10T08:43:27;91752.47;;;8.61
71807;BMP280;59655;42.590;23.364;2023-05-10T08:46:23;91764.88;;;8.66
71807;BMP280;59655;42.590;23.364;2023-05-10T08:48:59;91767.84;;;8.63
71807;BMP280;59655;42.590;23.364;2023-05-10T08:51:32;91753.09;;;8.67
71807;BMP280;59655;42.590;23.364;2023-05-10T08:54:15;91772.09;;;8.66
71807;BMP280;59655;42.590;23.364;2023-05-10T08:56:46;91772.53;;;8.56
71807;BMP280;59655;42.590;23.364;2023-05-10T08:59:14;91771.31;;;8.57
71807;BMP280;59655;42.590;23.364;2023-05-10T09:01:47;91775.16;;;8.56
71807;BMP280;59655;42.590;23.364;2023-05-10T09:04:16;91770.50;;;8.63
71807;BMP280;59655;42.590;23.364;2023-05-10T09:06:44;91761.31;;;8.64
71807;BMP280;59655;42.590;23.364;2023-05-10T09:09:17;91777.59;;;8.68
71807;BMP280;59655;42.590;23.364;2023-05-10T09:11:48;91761.94;;;8.70
71807;BMP280;59655;42.590;23.364;2023-05-10T09:14:21;91775.66;;;8.68
71807;BMP280;59655;42.590;23.364;2023-05-10T09:16:57;91772.69;;;8.72
71807;BMP280;59655;42.590;23.364;2023-05-10T09:19:24;91765.81;;;8.69
71807;BMP280;59655;42.590;23.364;2023-05-10T09:21:53;91764.66;;;8.77
71807;BMP280;59655;42.590;23.364;2023-05-10T09:24:20;91762.50;;;8.76
71807;BMP280;59655;42.590;23.364;2023-05-10T09:26:57;91767.00;;;8.68
71807;BMP280;59655;42.590;23.364;2023-05-10T09:29:23;91764.25;;;8.73
71807;BMP280;59655;42.590;23.364;2023-05-10T09:31:51;91763.16;;;8.69
71807;BMP280;59655;42.590;23.364;2023-05-10T09:34:21;91762.50;;;8.76
71807;BMP280;59655;42.590;23.364;2023-05-10T09:37:01;91759.34;;;8.77
71807;BMP280;59655;42.590;23.364;2023-05-10T09:39:31;91760.09;;;8.78
71807;BMP280;59655;42.590;23.364;2023-05-10T09:42:07;91758.22;;;8.86
71807;BMP280;59655;42.590;23.364;2023-05-10T09:44:34;91758.78;;;8.92
71807;BMP280;59655;42.590;23.364;2023-05-10T09:47:01;91751.06;;;8.94
71807;BMP280;59655;42.590;23.364;2023-05-10T09:49:28;91747.97;;;9.03
71807;BMP280;59655;42.590;23.364;2023-05-10T09:52:05;91751.81;;;9.02
71807;BMP280;59655;42.590;23.364;2023-05-10T09:54:38;91754.66;;;9.05
71807;BMP280;59655;42.590;23.364;2023-05-10T09:57:23;91744.81;;;9.05
71807;BMP280;59655;42.590;23.364;2023-05-10T09:59:49;91746.94;;;9.07
71807;BMP280;59655;42.590;23.364;2023-05-10T10:02:16;91749.28;;;9.10
71807;BMP280;59655;42.590;23.364;2023-05-10T10:04:42;91743.59;;;9.06
71807;BMP280;59655;42.590;23.364;2023-05-10T10:07:08;91739.72;;;9.07
71807;BMP280;59655;42.590;23.364;2023-05-10T10:09:34;91740.94;;;9.06
71807;BMP280;59655;42.590;23.364;2023-05-10T10:12:02;91746.09;;;9.12
71807;BMP280;59655;42.590;23.364;2023-05-10T10:14:32;91731.84;;;9.15
71807;BMP280;59655;42.590;23.364;2023-05-10T10:17:00;91741.75;;;9.22
71807;BMP280;59655;42.590;23.364;2023-05-10T10:19:25;91732.53;;;9.15
71807;BMP280;59655;42.590;23.364;2023-05-10T10:21:51;91735.91;;;9.16
71807;BMP280;59655;42.590;23.364;2023-05-10T10:24:17;91738.34;;;9.14
71807;BMP280;59655;42.590;23.364;2023-05-10T10:26:42;91737.53;;;9.19
71807;BMP280;59655;42.590;23.364;2023-05-10T10:29:23;91744.94;;;9.20
71807;BMP280;59655;42.590;23.364;2023-05-10T10:34:25;91749.19;;;9.23
71807;BMP280;59655;42.590;23.364;2023-05-10T10:36:52;91736.34;;;9.28
71807;BMP280;59655;42.590;23.364;2023-05-10T10:39:17;91743.78;;;9.29
71807;BMP280;59655;42.590;23.364;2023-05-10T10:41:54;91743.25;;;9.31
71807;BMP280;59655;42.590;23.364;2023-05-10T10:57:27;91748.19;;;9.27
71807;BMP280;59655;42.590;23.364;2023-05-10T11:03:12;91751.72;;;9.29
71807;BMP280;59655;42.590;23.364;2023-05-10T11:05:48;91756.69;;;9.33
71807;BMP280;59655;42.590;23.364;2023-05-10T11:08:42;91747.50;;;9.34
71807;BMP280;59655;42.590;23.364;2023-05-10T11:11:09;91747.19;;;9.37
71807;BMP280;59655;42.590;23.364;2023-05-10T11:21:27;91750.25;;;9.49
71807;BMP280;59655;42.590;23.364;2023-05-10T11:23:55;91741.44;;;9.47
71807;BMP280;59655;42.590;23.364;2023-05-10T11:26:34;91742.69;;;9.45
71807;BMP280;59655;42.590;23.364;2023-05-10T11:29:00;91744.91;;;9.41
71807;BMP280;59655;42.590;23.364;2023-05-10T11:31:27;91748.28;;;9.42
71807;BMP280;59655;42.590;23.364;2023-05-10T11:33:55;91746.03;;;9.46
71807;BMP280;59655;42.590;23.364;2023-05-10T11:36:23;91749.00;;;9.42
71807;BMP280;59655;42.590;23.364;2023-05-10T11:38:49;91749.34;;;9.39
71807;BMP280;59655;42.590;23.364;2023-05-10T11:41:17;91745.84;;;9.44
71807;BMP280;59655;42.590;23.364;2023-05-10T11:43:42;91752.50;;;9.37
71807;BMP280;59655;42.590;23.364;2023-05-10T11:46:12;91750.38;;;9.36
71807;BMP280;59655;42.590;23.364;2023-05-10T11:48:39;91746.34;;;9.42
71807;BMP280;59655;42.590;23.364;2023-05-10T11:51:06;91752.66;;;9.39
71807;BMP280;59655;42.590;23.364;2023-05-10T11:53:32;91754.22;;;9.35
71807;BMP280;59655;42.590;23.364;2023-05-10T11:56:08;91756.19;;;9.34
71807;BMP280;59655;42.590;23.364;2023-05-10T11:58:35;91757.19;;;9.31
71807;BMP280;59655;42.590;23.364;2023-05-10T12:01:02;91753.34;;;9.32
71807;BMP280;59655;42.590;23.364;2023-05-10T12:03:28;91753.13;;;9.30
71807;BMP280;59655;42.590;23.364;2023-05-10T12:05:57;91753.13;;;9.30
71807;BMP280;59655;42.590;23.364;2023-05-10T12:08:28;91748.22;;;9.34
71807;BMP280;59655;42.590;23.364;2023-05-10T12:11:04;91748.75;;;9.33
71807;BMP280;59655;42.590;23.364;2023-05-10T12:13:30;91748.50;;;9.23
71807;BMP280;59655;42.590;23.364;2023-05-10T12:15:58;91738.50;;;9.29
71807;BMP280;59655;42.590;23.364;2023-05-10T12:18:24;91737.97;;;9.31
71807;BMP280;59655;42.590;23.364;2023-05-10T12:20:53;91735.69;;;9.35
71807;BMP280;59655;42.590;23.364;2023-05-10T12:23:19;91738.34;;;9.35
71807;BMP280;59655;42.590;23.364;2023-05-10T12:25:45;91733.75;;;9.35
71807;BMP280;59655;42.590;23.364;2023-05-10T12:28:11;91727.94;;;9.37
71807;BMP280;59655;42.590;23.364;2023-05-10T12:30:38;91726.53;;;9.36
71807;BMP280;59655;42.590;23.364;2023-05-10T12:33:08;91728.72;;;9.45
71807;BMP280;59655;42.590;23.364;2023-05-10T12:35:44;91724.44;;;9.42
71807;BMP280;59655;42.590;23.364;2023-05-10T12:38:31;91725.56;;;9.47
71807;BMP280;59655;42.590;23.364;2023-05-10T12:41:01;91725.88;;;9.43
71807;BMP280;59655;42.590;23.364;2023-05-10T12:43:27;91722.69;;;9.44
71807;BMP280;59655;42.590;23.364;2023-05-10T12:45:53;91721.38;;;9.30
71807;BMP280;59655;42.590;23.364;2023-05-10T12:48:20;91715.41;;;9.37
71807;BMP280;59655;42.590;23.364;2023-05-10T12:50:45;91717.88;;;9.35
71807;BMP280;59655;42.590;23.364;2023-05-10T12:53:12;91718.53;;;9.28
71807;BMP280;59655;42.590;23.364;2023-05-10T12:55:38;91721.38;;;9.30
71807;BMP280;59655;42.590;23.364;2023-05-10T12:58:05;91714.84;;;9.31
71807;BMP280;59655;42.590;23.364;2023-05-10T13:00:31;91706.88;;;9.31
71807;BMP280;59655;42.590;23.364;2023-05-10T13:02:56;91708.00;;;9.36
71807;BMP280;59655;42.590;23.364;2023-05-10T13:05:21;91711.34;;;9.36
71807;BMP280;59655;42.590;23.364;2023-05-10T13:07:47;91710.84;;;9.38
71807;BMP280;59655;42.590;23.364;2023-05-10T13:10:12;91706.56;;;9.35
71807;BMP280;59655;42.590;23.364;2023-05-10T13:12:37;91705.72;;;9.40
71807;BMP280;59655;42.590;23.364;2023-05-10T13:15:03;91698.81;;;9.37
71807;BMP280;59655;42.590;23.364;2023-05-10T13:17:29;91701.66;;;9.39
71807;BMP280;59655;42.590;23.364;2023-05-10T13:19:54;91699.19;;;9.41
71807;BMP280;59655;42.590;23.364;2023-05-10T13:22:20;91696.53;;;9.41
71807;BMP280;59655;42.590;23.364;2023-05-10T13:24:45;91698.13;;;9.36
71807;BMP280;59655;42.590;23.364;2023-05-10T13:27:11;91699.88;;;9.41
71807;BMP280;59655;42.590;23.364;2023-05-10T13:29:37;91688.59;;;9.41
71807;BMP280;59655;42.590;23.364;2023-05-10T13:32:04;91683.19;;;9.47
71807;BMP280;59655;42.590;23.364;2023-05-10T13:34:30;91680.84;;;9.43
71807;BMP280;59655;42.590;23.364;2023-05-10T13:36:55;91683.63;;;9.37
71807;BMP280;59655;42.590;23.364;2023-05-10T13:39:21;91681.00;;;9.37
71807;BMP280;59655;42.590;23.364;2023-05-10T13:41:47;91677.63;;;9.37
71807;BMP280;59655;42.590;23.364;2023-05-10T13:44:13;91677.50;;;9.42
71807;BMP280;59655;42.590;23.364;2023-05-10T13:46:40;91672.38;;;9.44
71807;BMP280;59655;42.590;23.364;2023-05-10T13:49:05;91674.53;;;9.46
71807;BMP280;59655;42.590;23.364;2023-05-10T13:51:31;91675.59;;;9.51
71807;BMP280;59655;42.590;23.364;2023-05-10T13:53:57;91670.81;;;9.49
71807;BMP280;59655;42.590;23.364;2023-05-10T13:56:22;91672.06;;;9.48
71807;BMP280;59655;42.590;23.364;2023-05-10T13:58:48;91670.47;;;9.53
71807;BMP280;59655;42.590;23.364;2023-05-10T14:01:13;91675.78;;;9.53
71807;BMP280;59655;42.590;23.364;2023-05-10T14:03:39;91680.53;;;9.47
71807;BMP280;59655;42.590;23.364;2023-05-10T14:06:04;91687.38;;;9.42
71807;BMP280;59655;42.590;23.364;2023-05-10T14:08:30;91679.44;;;9.42
71807;BMP280;59655;42.590;23.364;2023-05-10T14:10:55;91676.97;;;9.44
71807;BMP280;59655;42.590;23.364;2023-05-10T14:13:22;91678.75;;;9.49
71807;BMP280;59655;42.590;23.364;2023-05-10T14:15:47;91684.03;;;9.49
71807;BMP280;59655;42.590;23.364;2023-05-10T14:18:12;91684.78;;;9.50
71807;BMP280;59655;42.590;23.364;2023-05-10T14:20:38;91676.50;;;9.53
71807;BMP280;59655;42.590;23.364;2023-05-10T14:23:03;91680.19;;;9.50
71807;BMP280;59655;42.590;23.364;2023-05-10T14:25:29;91682.13;;;9.50
71807;BMP280;59655;42.590;23.364;2023-05-10T14:27:54;91685.47;;;9.50
71807;BMP280;59655;42.590;23.364;2023-05-10T14:30:20;91684.78;;;9.50
71807;BMP280;59655;42.590;23.364;2023-05-10T14:32:45;91676.09;;;9.49
71807;BMP280;59655;42.590;23.364;2023-05-10T14:35:11;91678.44;;;9.53
71807;BMP280;59655;42.590;23.364;2023-05-10T14:37:38;91678.97;;;9.51
71807;BMP280;59655;42.590;23.364;2023-05-10T14:40:03;91682.00;;;9.55
71807;BMP280;59655;42.590;23.364;2023-05-10T14:42:29;91679.16;;;9.53
71807;BMP280;59655;42.590;23.364;2023-05-10T14:44:55;91683.72;;;9.53
71807;BMP280;59655;42.590;23.364;2023-05-10T14:47:20;91681.28;;;9.55
71807;BMP280;59655;42.590;23.364;2023-05-10T14:49:45;91692.06;;;9.57
71807;BMP280;59655;42.590;23.364;2023-05-10T14:52:11;91681.81;;;9.53
71807;BMP280;59655;42.590;23.364;2023-05-10T14:54:37;91690.06;;;9.50
71807;BMP280;59655;42.590;23.364;2023-05-10T14:57:02;91686.19;;;9.51
71807;BMP280;59655;42.590;23.364;2023-05-10T14:59:28;91679.31;;;9.48